sensor_id;sensor_type;location;lat;lon;timestamp;P1;durP1;ratioP1;P2;durP2;ratioP2
39822;SDS011;25499;53.958;10.970;2022-08-16T04:38:04;14.48;;;12.98;;
39822;SDS011;25499;53.958;10.970;2022-08-16T04:40:30;17.52;;;13.05;;
39822;SDS011;25499;53.958;10.970;2022-08-16T04:42:56;14.07;;;12.73;;
39822;SDS011;25499;53.958;10.970;2022-08-16T04:45:24;13.77;;;12.40;;
39822;SDS011;25499;53.958;10.970;2022-08-16T04:47:50;13.05;;;11.73;;
39822;SDS011;25499;53.958;10.970;2022-08-16T04:50:16;15.60;;;11.93;;
39822;SDS011;25499;53.958;10.970;2022-08-16T04:52:44;12.88;;;11.60;;
39822;SDS011;25499;53.958;10.970;2022-08-16T04:55:13;12.75;;;11.45;;
39822;SDS011;25499;53.958;10.970;2022-08-16T04:57:41;12.20;;;10.98;;
39822;SDS011;25499;53.958;10.970;2022-08-16T05:00:08;13.13;;;11.30;;
39822;SDS011;25499;53.958;10.970;2022-08-16T05:02:36;12.63;;;11.00;;
39822;SDS011;25499;53.958;10.970;2022-08-16T05:05:02;12.20;;;11.00;;
39822;SDS011;25499;53.958;10.970;2022-08-16T05:07:28;12.27;;;11.18;;
39822;SDS011;25499;53.958;10.970;2022-08-16T05:09:53;11.93;;;10.82;;
39822;SDS011;25499;53.958;10.970;2022-08-16T05:12:18;11.85;;;10.77;;
39822;SDS011;25499;53.958;10.970;2022-08-16T05:14:44;11.95;;;10.75;;
39822;SDS011;25499;53.958;10.970;2022-08-16T05:17:09;12.07;;;10.93;;
39822;SDS011;25499;53.958;10.970;2022-08-16T05:19:34;12.48;;;11.13;;
39822;SDS011;25499;53.958;10.970;2022-08-16T05:22:00;13.55;;;10.70;;
39822;SDS011;25499;53.958;10.970;2022-08-16T05:24:25;13.07;;;11.30;;
39822;SDS011;25499;53.958;10.970;2022-08-16T05:26:51;11.93;;;10.82;;
39822;SDS011;25499;53.958;10.970;2022-08-16T05:29:16;11.57;;;10.48;;
39822;SDS011;25499;53.958;10.970;2022-08-16T05:31:41;12.50;;;10.70;;
39822;SDS011;25499;53.958;10.970;2022-08-16T05:34:07;12.00;;;10.90;;
39822;SDS011;25499;53.958;10.970;2022-08-16T05:36:32;12.02;;;10.82;;
39822;SDS011;25499;53.958;10.970;2022-08-16T05:38:58;11.85;;;10.35;;
39822;SDS011;25499;53.958;10.970;2022-08-16T05:41:24;11.50;;;10.38;;
39822;SDS011;25499;53.958;10.970;2022-08-16T05:43:49;11.73;;;10.52;;
39822;SDS011;25499;53.958;10.970;2022-08-16T05:46:15;12.32;;;11.02;;
39822;SDS011;25499;53.958;10.970;2022-08-16T05:48:44;11.82;;;10.65;;
39822;SDS011;25499;53.958;10.970;2022-08-16T05:51:10;12.32;;;11.13;;
39822;SDS011;25499;53.958;10.970;2022-08-16T05:53:35;11.82;;;10.65;;
39822;SDS011;25499;53.958;10.970;2022-08-16T05:56:00;12.13;;;11.02;;
39822;SDS011;25499;53.958;10.970;2022-08-16T05:58:26;13.13;;;11.45;;
39822;SDS011;25499;53.958;10.970;2022-08-16T06:00:51;12.60;;;11.32;;
39822;SDS011;25499;53.958;10.970;2022-08-16T06:03:17;14.10;;;12.50;;
39822;SDS011;25499;53.958;10.970;2022-08-16T06:05:42;12.88;;;11.68;;
39822;SDS011;25499;53.958;10.970;2022-08-16T06:08:07;13.02;;;11.73;;
39822;SDS011;25499;53.958;10.970;2022-08-16T06:10:33;14.32;;;12.88;;
39822;SDS011;25499;53.958;10.970;2022-08-16T06:12:58;12.63;;;11.43;;
39822;SDS011;25499;53.958;10.970;2022-08-16T06:15:23;14.77;;;12.38;;
39822;SDS011;25499;53.958;10.970;2022-08-16T06:17:48;12.82;;;11.52;;
39822;SDS011;25499;53.958;10.970;2022-08-16T06:20:18;14.00;;;12.43;;
39822;SDS011;25499;53.958;10.970;2022-08-16T06:22:49;14.43;;;12.93;;
39822;SDS011;25499;53.958;10.970;2022-08-16T06:25:15;14.07;;;12.68;;
39822;SDS011;25499;53.958;10.970;2022-08-16T06:27:41;14.55;;;12.73;;
39822;SDS011;25499;53.958;10.970;2022-08-16T06:30:07;14.35;;;12.95;;
39822;SDS011;25499;53.958;10.970;2022-08-16T06:32:33;14.50;;;12.68;;
39822;SDS011;25499;53.958;10.970;2022-08-16T06:34:59;16.05;;;13.00;;
39822;SDS011;25499;53.958;10.970;2022-08-16T06:37:24;14.25;;;12.77;;
39822;SDS011;25499;53.958;10.970;2022-08-16T06:39:49;14.18;;;12.68;;
39822;SDS011;25499;53.958;10.970;2022-08-16T06:42:15;14.50;;;12.95;;
39822;SDS011;25499;53.958;10.970;2022-08-16T06:44:41;14.82;;;13.27;;
39822;SDS011;25499;53.958;10.970;2022-08-16T06:47:06;14.68;;;12.43;;
39822;SDS011;25499;53.958;10.970;2022-08-16T06:49:31;14.57;;;13.02;;
39822;SDS011;25499;53.958;10.970;2022-08-16T06:51:57;14.23;;;12.77;;
39822;SDS011;25499;53.958;10.970;2022-08-16T06:54:22;14.50;;;13.10;;
39822;SDS011;25499;53.958;10.970;2022-08-16T06:56:47;15.25;;;13.38;;
39822;SDS011;25499;53.958;10.970;2022-08-16T06:59:13;15.80;;;14.05;;
39822;SDS011;25499;53.958;10.970;2022-08-16T07:01:38;15.93;;;14.23;;
39822;SDS011;25499;53.958;10.970;2022-08-16T07:04:03;17.95;;;14.35;;
39822;SDS011;25499;53.958;10.970;2022-08-16T07:06:29;17.58;;;14.15;;
39822;SDS011;25499;53.958;10.970;2022-08-16T07:08:55;16.55;;;14.68;;
39822;SDS011;25499;53.958;10.970;2022-08-16T07:11:20;16.05;;;13.63;;
39822;SDS011;25499;53.958;10.970;2022-08-16T07:13:46;15.30;;;13.80;;
39822;SDS011;25499;53.958;10.970;2022-08-16T07:16:13;15.20;;;13.35;;
39822;SDS011;25499;53.958;10.970;2022-08-16T07:18:40;15.80;;;14.18;;
39822;SDS011;25499;53.958;10.970;2022-08-16T07:21:07;15.75;;;13.63;;
39822;SDS011;25499;53.958;10.970;2022-08-16T07:23:34;16.08;;;14.48;;
39822;SDS011;25499;53.958;10.970;2022-08-16T07:26:00;17.67;;;15.05;;
39822;SDS011;25499;53.958;10.970;2022-08-16T07:28:26;15.65;;;14.05;;
39822;SDS011;25499;53.958;10.970;2022-08-16T07:30:51;17.33;;;15.30;;
39822;SDS011;25499;53.958;10.970;2022-08-16T07:33:16;17.38;;;15.52;;
39822;SDS011;25499;53.958;10.970;2022-08-16T07:35:42;17.20;;;15.43;;
39822;SDS011;25499;53.958;10.970;2022-08-16T07:38:08;19.25;;;15.68;;
39822;SDS011;25499;53.958;10.970;2022-08-16T07:40:33;20.58;;;16.45;;
39822;SDS011;25499;53.958;10.970;2022-08-16T07:43:01;18.50;;;15.35;;
39822;SDS011;25499;53.958;10.970;2022-08-16T07:45:27;20.55;;;14.50;;
39822;SDS011;25499;53.958;10.970;2022-08-16T07:47:53;16.58;;;14.77;;
39822;SDS011;25499;53.958;10.970;2022-08-16T07:50:18;16.10;;;14.30;;
39822;SDS011;25499;53.958;10.970;2022-08-16T07:52:44;18.02;;;15.07;;
39822;SDS011;25499;53.958;10.970;2022-08-16T07:55:11;16.30;;;13.82;;
39822;SDS011;25499;53.958;10.970;2022-08-16T07:57:38;16.75;;;14.15;;
39822;SDS011;25499;53.958;10.970;2022-08-16T08:00:03;18.90;;;13.45;;
39822;SDS011;25499;53.958;10.970;2022-08-16T08:02:29;19.58;;;14.32;;
39822;SDS011;25499;53.958;10.970;2022-08-16T08:04:55;16.15;;;13.23;;
39822;SDS011;25499;53.958;10.970;2022-08-16T08:07:20;18.50;;;12.27;;
39822;SDS011;25499;53.958;10.970;2022-08-16T08:09:46;14.32;;;11.48;;
39822;SDS011;25499;53.958;10.970;2022-08-16T08:12:12;13.90;;;11.85;;
39822;SDS011;25499;53.958;10.970;2022-08-16T08:14:38;15.32;;;12.70;;
39822;SDS011;25499;53.958;10.970;2022-08-16T08:17:03;12.80;;;11.48;;
39822;SDS011;25499;53.958;10.970;2022-08-16T08:19:32;15.23;;;10.95;;
39822;SDS011;25499;53.958;10.970;2022-08-16T08:21:58;12.50;;;9.88;;
39822;SDS011;25499;53.958;10.970;2022-08-16T08:24:24;14.98;;;10.10;;
39822;SDS011;25499;53.958;10.970;2022-08-16T08:26:51;10.63;;;9.50;;
39822;SDS011;25499;53.958;10.970;2022-08-16T08:29:18;9.52;;;8.52;;
39822;SDS011;25499;53.958;10.970;2022-08-16T08:31:44;10.23;;;8.13;;
39822;SDS011;25499;53.958;10.970;2022-08-16T08:34:09;10.57;;;7.20;;
39822;SDS011;25499;53.958;10.970;2022-08-16T08:36:34;8.52;;;7.00;;
39822;SDS011;25499;53.958;10.970;2022-08-16T08:39:00;11.32;;;7.93;;
39822;SDS011;25499;53.958;10.970;2022-08-16T08:41:27;8.82;;;7.10;;
39822;SDS011;25499;53.958;10.970;2022-08-16T08:43:53;8.60;;;6.57;;
39822;SDS011;25499;53.958;10.970;2022-08-16T08:46:19;7.60;;;6.80;;
39822;SDS011;25499;53.958;10.970;2022-08-16T08:48:46;6.90;;;6.20;;
39822;SDS011;25499;53.958;10.970;2022-08-16T08:51:12;7.32;;;6.63;;
39822;SDS011;25499;53.958;10.970;2022-08-16T08:53:38;7.78;;;6.57;;
39822;SDS011;25499;53.958;10.970;2022-08-16T08:56:04;7.75;;;5.90;;
39822;SDS011;25499;53.958;10.970;2022-08-16T08:58:31;7.15;;;6.45;;
39822;SDS011;25499;53.958;10.970;2022-08-16T09:00:57;6.65;;;6.05;;
39822;SDS011;25499;53.958;10.970;2022-08-16T09:03:23;6.72;;;6.05;;
39822;SDS011;25499;53.958;10.970;2022-08-16T09:05:49;6.20;;;5.60;;
39822;SDS011;25499;53.958;10.970;2022-08-16T09:08:15;7.65;;;5.88;;
39822;SDS011;25499;53.958;10.970;2022-08-16T09:10:40;7.43;;;5.78;;
39822;SDS011;25499;53.958;10.970;2022-08-16T09:13:06;6.78;;;6.07;;
39822;SDS011;25499;53.958;10.970;2022-08-16T09:15:31;9.27;;;6.10;;
39822;SDS011;25499;53.958;10.970;2022-08-16T09:17:56;6.05;;;5.53;;
39822;SDS011;25499;53.958;10.970;2022-08-16T09:20:23;9.75;;;4.85;;
39822;SDS011;25499;53.958;10.970;2022-08-16T09:22:49;6.00;;;5.40;;
39822;SDS011;25499;53.958;10.970;2022-08-16T09:25:15;7.88;;;4.55;;
39822;SDS011;25499;53.958;10.970;2022-08-16T09:27:41;6.50;;;5.10;;
39822;SDS011;25499;53.958;10.970;2022-08-16T09:30:07;7.53;;;5.00;;
39822;SDS011;25499;53.958;10.970;2022-08-16T09:32:34;6.53;;;4.72;;
39822;SDS011;25499;53.958;10.970;2022-08-16T09:35:00;8.18;;;5.40;;
39822;SDS011;25499;53.958;10.970;2022-08-16T09:37:28;7.95;;;5.25;;
39822;SDS011;25499;53.958;10.970;2022-08-16T09:39:55;5.65;;;4.60;;
39822;SDS011;25499;53.958;10.970;2022-08-16T09:42:21;6.72;;;4.75;;
39822;SDS011;25499;53.958;10.970;2022-08-16T09:44:46;4.35;;;3.95;;
39822;SDS011;25499;53.958;10.970;2022-08-16T09:47:12;5.65;;;4.18;;
39822;SDS011;25499;53.958;10.970;2022-08-16T09:49:37;5.28;;;4.35;;
39822;SDS011;25499;53.958;10.970;2022-08-16T09:52:04;5.30;;;3.88;;
39822;SDS011;25499;53.958;10.970;2022-08-16T09:54:29;5.45;;;4.00;;
39822;SDS011;25499;53.958;10.970;2022-08-16T09:56:54;4.20;;;3.65;;
39822;SDS011;25499;53.958;10.970;2022-08-16T09:59:21;6.20;;;4.28;;
39822;SDS011;25499;53.958;10.970;2022-08-16T10:01:48;4.93;;;3.83;;
39822;SDS011;25499;53.958;10.970;2022-08-16T10:04:15;4.10;;;3.40;;
39822;SDS011;25499;53.958;10.970;2022-08-16T10:06:41;7.57;;;3.65;;
39822;SDS011;25499;53.958;10.970;2022-08-16T10:09:08;5.07;;;3.28;;
39822;SDS011;25499;53.958;10.970;2022-08-16T10:11:34;7.10;;;2.78;;
39822;SDS011;25499;53.958;10.970;2022-08-16T10:14:19;3.10;;;2.80;;
39822;SDS011;25499;53.958;10.970;2022-08-16T10:16:45;4.03;;;3.15;;
39822;SDS011;25499;53.958;10.970;2022-08-16T10:19:11;3.50;;;3.03;;
39822;SDS011;25499;53.958;10.970;2022-08-16T10:21:37;4.38;;;3.50;;
39822;SDS011;25499;53.958;10.970;2022-08-16T10:24:04;3.75;;;3.35;;
39822;SDS011;25499;53.958;10.970;2022-08-16T10:26:31;4.55;;;3.53;;
39822;SDS011;25499;53.958;10.970;2022-08-16T10:28:57;4.03;;;3.30;;
39822;SDS011;25499;53.958;10.970;2022-08-16T10:31:23;4.68;;;3.63;;
39822;SDS011;25499;53.958;10.970;2022-08-16T10:33:49;6.80;;;4.30;;
39822;SDS011;25499;53.958;10.970;2022-08-16T10:36:14;5.15;;;4.60;;
39822;SDS011;25499;53.958;10.970;2022-08-16T10:38:40;6.15;;;4.28;;
39822;SDS011;25499;53.958;10.970;2022-08-16T10:41:06;5.88;;;3.95;;
39822;SDS011;25499;53.958;10.970;2022-08-16T10:43:32;7.35;;;4.30;;
39822;SDS011;25499;53.958;10.970;2022-08-16T10:45:58;4.45;;;4.05;;
39822;SDS011;25499;53.958;10.970;2022-08-16T10:48:24;5.30;;;4.75;;
39822;SDS011;25499;53.958;10.970;2022-08-16T10:50:50;8.90;;;4.25;;
39822;SDS011;25499;53.958;10.970;2022-08-16T10:53:16;6.55;;;4.50;;
39822;SDS011;25499;53.958;10.970;2022-08-16T10:55:42;4.88;;;4.10;;
39822;SDS011;25499;53.958;10.970;2022-08-16T10:58:09;5.65;;;4.45;;
39822;SDS011;25499;53.958;10.970;2022-08-16T11:00:38;6.18;;;4.57;;
39822;SDS011;25499;53.958;10.970;2022-08-16T11:03:06;8.15;;;4.88;;
39822;SDS011;25499;53.958;10.970;2022-08-16T11:05:34;5.38;;;4.00;;
39822;SDS011;25499;53.958;10.970;2022-08-16T11:08:03;5.60;;;4.70;;
39822;SDS011;25499;53.958;10.970;2022-08-16T11:10:31;4.43;;;3.95;;
39822;SDS011;25499;53.958;10.970;2022-08-16T11:12:58;5.13;;;4.18;;
39822;SDS011;25499;53.958;10.970;2022-08-16T11:15:24;5.18;;;4.05;;
39822;SDS011;25499;53.958;10.970;2022-08-16T11:17:51;4.20;;;3.80;;
39822;SDS011;25499;53.958;10.970;2022-08-16T11:20:17;8.02;;;4.43;;
39822;SDS011;25499;53.958;10.970;2022-08-16T11:22:44;6.82;;;4.60;;
39822;SDS011;25499;53.958;10.970;2022-08-16T11:25:11;4.88;;;4.03;;
39822;SDS011;25499;53.958;10.970;2022-08-16T11:27:38;5.88;;;4.00;;
39822;SDS011;25499;53.958;10.970;2022-08-16T11:30:04;5.82;;;4.07;;
39822;SDS011;25499;53.958;10.970;2022-08-16T11:32:31;4.65;;;3.40;;
39822;SDS011;25499;53.958;10.970;2022-08-16T11:34:58;5.28;;;3.90;;
39822;SDS011;25499;53.958;10.970;2022-08-16T11:37:24;4.95;;;4.50;;
39822;SDS011;25499;53.958;10.970;2022-08-16T11:39:50;6.55;;;4.68;;
39822;SDS011;25499;53.958;10.970;2022-08-16T11:42:15;5.85;;;4.30;;
39822;SDS011;25499;53.958;10.970;2022-08-16T11:44:40;5.95;;;4.18;;
39822;SDS011;25499;53.958;10.970;2022-08-16T11:47:06;5.30;;;4.10;;
39822;SDS011;25499;53.958;10.970;2022-08-16T11:49:31;10.02;;;3.88;;
39822;SDS011;25499;53.958;10.970;2022-08-16T11:51:56;5.20;;;3.70;;
39822;SDS011;25499;53.958;10.970;2022-08-16T11:54:22;5.97;;;3.92;;
39822;SDS011;25499;53.958;10.970;2022-08-16T11:56:48;4.47;;;3.28;;
39822;SDS011;25499;53.958;10.970;2022-08-16T11:59:14;6.22;;;3.70;;
39822;SDS011;25499;53.958;10.970;2022-08-16T12:01:40;5.63;;;3.70;;
39822;SDS011;25499;53.958;10.970;2022-08-16T12:04:05;4.82;;;3.53;;
39822;SDS011;25499;53.958;10.970;2022-08-16T12:06:31;4.57;;;4.03;;
39822;SDS011;25499;53.958;10.970;2022-08-16T12:08:57;5.07;;;3.55;;
39822;SDS011;25499;53.958;10.970;2022-08-16T12:11:25;4.50;;;3.67;;
39822;SDS011;25499;53.958;10.970;2022-08-16T12:13:51;4.88;;;4.10;;
39822;SDS011;25499;53.958;10.970;2022-08-16T12:16:17;4.00;;;3.60;;
39822;SDS011;25499;53.958;10.970;2022-08-16T12:18:43;4.85;;;3.70;;
39822;SDS011;25499;53.958;10.970;2022-08-16T12:21:09;6.03;;;3.63;;
39822;SDS011;25499;53.958;10.970;2022-08-16T12:23:34;4.40;;;3.58;;
39822;SDS011;25499;53.958;10.970;2022-08-16T12:26:00;7.32;;;3.88;;
39822;SDS011;25499;53.958;10.970;2022-08-16T12:28:26;5.13;;;4.10;;
39822;SDS011;25499;53.958;10.970;2022-08-16T12:30:51;5.35;;;3.40;;
39822;SDS011;25499;53.958;10.970;2022-08-16T12:33:16;4.28;;;3.92;;
39822;SDS011;25499;53.958;10.970;2022-08-16T12:35:44;5.85;;;4.13;;
39822;SDS011;25499;53.958;10.970;2022-08-16T12:38:11;7.03;;;3.85;;
39822;SDS011;25499;53.958;10.970;2022-08-16T12:40:39;4.18;;;3.75;;
39822;SDS011;25499;53.958;10.970;2022-08-16T12:43:07;5.03;;;3.80;;
39822;SDS011;25499;53.958;10.970;2022-08-16T12:45:37;5.78;;;4.30;;
39822;SDS011;25499;53.958;10.970;2022-08-16T12:48:11;5.40;;;4.22;;
39822;SDS011;25499;53.958;10.970;2022-08-16T12:50:57;4.60;;;3.97;;
39822;SDS011;25499;53.958;10.970;2022-08-16T12:53:23;5.10;;;4.60;;
39822;SDS011;25499;53.958;10.970;2022-08-16T12:55:48;4.30;;;3.90;;
39822;SDS011;25499;53.958;10.970;2022-08-16T12:58:14;4.25;;;3.78;;
39822;SDS011;25499;53.958;10.970;2022-08-16T13:00:40;5.18;;;4.22;;
39822;SDS011;25499;53.958;10.970;2022-08-16T13:03:06;5.88;;;4.18;;
39822;SDS011;25499;53.958;10.970;2022-08-16T13:05:33;4.68;;;3.85;;
39822;SDS011;25499;53.958;10.970;2022-08-16T13:08:04;5.00;;;4.05;;
39822;SDS011;25499;53.958;10.970;2022-08-16T13:10:30;5.85;;;4.47;;
39822;SDS011;25499;53.958;10.970;2022-08-16T13:12:56;4.90;;;4.40;;
39822;SDS011;25499;53.958;10.970;2022-08-16T13:15:22;5.05;;;4.22;;
39822;SDS011;25499;53.958;10.970;2022-08-16T13:17:52;5.10;;;4.55;;
39822;SDS011;25499;53.958;10.970;2022-08-16T13:20:21;4.68;;;4.25;;
39822;SDS011;25499;53.958;10.970;2022-08-16T13:22:49;6.27;;;5.10;;
39822;SDS011;25499;53.958;10.970;2022-08-16T13:25:20;5.82;;;4.88;;
39822;SDS011;25499;53.958;10.970;2022-08-16T13:27:48;6.00;;;4.93;;
39822;SDS011;25499;53.958;10.970;2022-08-16T13:30:14;5.68;;;4.70;;
39822;SDS011;25499;53.958;10.970;2022-08-16T13:32:40;6.75;;;4.60;;
39822;SDS011;25499;53.958;10.970;2022-08-16T13:35:06;5.53;;;4.90;;
39822;SDS011;25499;53.958;10.970;2022-08-16T13:37:32;6.32;;;4.90;;
39822;SDS011;25499;53.958;10.970;2022-08-16T13:39:57;5.70;;;4.60;;
39822;SDS011;25499;53.958;10.970;2022-08-16T13:42:22;9.70;;;4.47;;
39822;SDS011;25499;53.958;10.970;2022-08-16T13:44:49;7.25;;;4.82;;
39822;SDS011;25499;53.958;10.970;2022-08-16T13:47:15;5.05;;;4.65;;
39822;SDS011;25499;53.958;10.970;2022-08-16T13:49:40;7.80;;;5.18;;
39822;SDS011;25499;53.958;10.970;2022-08-16T13:52:06;5.13;;;4.65;;
39822;SDS011;25499;53.958;10.970;2022-08-16T13:54:33;4.85;;;4.38;;
39822;SDS011;25499;53.958;10.970;2022-08-16T13:56:58;5.93;;;4.15;;
39822;SDS011;25499;53.958;10.970;2022-08-16T13:59:24;6.72;;;4.70;;
39822;SDS011;25499;53.958;10.970;2022-08-16T14:01:51;5.70;;;4.90;;
39822;SDS011;25499;53.958;10.970;2022-08-16T14:04:18;9.23;;;5.07;;
39822;SDS011;25499;53.958;10.970;2022-08-16T14:06:43;6.43;;;5.40;;
39822;SDS011;25499;53.958;10.970;2022-08-16T14:09:09;7.88;;;5.13;;
39822;SDS011;25499;53.958;10.970;2022-08-16T14:11:35;7.47;;;4.90;;
39822;SDS011;25499;53.958;10.970;2022-08-16T14:14:02;7.32;;;4.80;;
39822;SDS011;25499;53.958;10.970;2022-08-16T14:16:28;5.85;;;5.25;;
39822;SDS011;25499;53.958;10.970;2022-08-16T14:18:54;7.10;;;5.07;;
39822;SDS011;25499;53.958;10.970;2022-08-16T14:21:20;7.65;;;5.25;;
39822;SDS011;25499;53.958;10.970;2022-08-16T14:26:29;6.10;;;5.13;;
39822;SDS011;25499;53.958;10.970;2022-08-16T14:28:54;5.63;;;5.10;;
39822;SDS011;25499;53.958;10.970;2022-08-16T14:31:19;5.47;;;4.97;;
39822;SDS011;25499;53.958;10.970;2022-08-16T14:33:45;5.85;;;4.60;;
39822;SDS011;25499;53.958;10.970;2022-08-16T14:36:10;5.13;;;4.60;;
39822;SDS011;25499;53.958;10.970;2022-08-16T14:38:36;4.53;;;4.13;;
39822;SDS011;25499;53.958;10.970;2022-08-16T14:41:01;5.13;;;4.60;;
39822;SDS011;25499;53.958;10.970;2022-08-16T14:43:27;6.28;;;4.60;;
39822;SDS011;25499;53.958;10.970;2022-08-16T14:45:52;5.70;;;4.45;;
39822;SDS011;25499;53.958;10.970;2022-08-16T14:48:19;4.05;;;3.65;;
39822;SDS011;25499;53.958;10.970;2022-08-16T14:50:45;3.60;;;3.30;;
39822;SDS011;25499;53.958;10.970;2022-08-16T14:53:10;6.07;;;3.53;;
39822;SDS011;25499;53.958;10.970;2022-08-16T14:55:36;3.60;;;3.30;;
39822;SDS011;25499;53.958;10.970;2022-08-16T14:58:03;2.92;;;2.72;;
39822;SDS011;25499;53.958;10.970;2022-08-16T15:00:30;3.55;;;3.10;;
39822;SDS011;25499;53.958;10.970;2022-08-16T15:02:58;4.82;;;3.20;;
39822;SDS011;25499;53.958;10.970;2022-08-16T15:05:25;3.85;;;2.92;;
39822;SDS011;25499;53.958;10.970;2022-08-16T15:07:52;3.40;;;3.10;;
39822;SDS011;25499;53.958;10.970;2022-08-16T15:10:18;4.38;;;3.97;;
39822;SDS011;25499;53.958;10.970;2022-08-16T15:12:46;5.95;;;3.95;;
39822;SDS011;25499;53.958;10.970;2022-08-16T15:15:13;5.68;;;3.85;;
39822;SDS011;25499;53.958;10.970;2022-08-16T15:17:44;3.88;;;3.58;;
39822;SDS011;25499;53.958;10.970;2022-08-16T15:20:10;6.47;;;3.80;;
39822;SDS011;25499;53.958;10.970;2022-08-16T15:22:37;4.57;;;3.58;;
39822;SDS011;25499;53.958;10.970;2022-08-16T15:25:13;4.72;;;3.72;;
39822;SDS011;25499;53.958;10.970;2022-08-16T15:27:42;4.20;;;3.60;;
39822;SDS011;25499;53.958;10.970;2022-08-16T15:30:10;4.13;;;3.67;;
39822;SDS011;25499;53.958;10.970;2022-08-16T15:32:41;3.88;;;3.47;;
39822;SDS011;25499;53.958;10.970;2022-08-16T15:35:07;5.43;;;3.70;;
39822;SDS011;25499;53.958;10.970;2022-08-16T15:37:33;4.22;;;3.85;;
39822;SDS011;25499;53.958;10.970;2022-08-16T15:40:01;4.72;;;4.03;;
39822;SDS011;25499;53.958;10.970;2022-08-16T15:44:58;5.30;;;4.05;;
39822;SDS011;25499;53.958;10.970;2022-08-16T15:47:24;4.70;;;4.03;;
39822;SDS011;25499;53.958;10.970;2022-08-16T15:49:51;4.28;;;3.85;;
39822;SDS011;25499;53.958;10.970;2022-08-16T15:52:19;4.20;;;3.90;;
39822;SDS011;25499;53.958;10.970;2022-08-16T15:54:47;6.63;;;4.00;;
39822;SDS011;25499;53.958;10.970;2022-08-16T15:57:13;5.30;;;3.63;;
39822;SDS011;25499;53.958;10.970;2022-08-16T15:59:40;4.35;;;3.60;;
39822;SDS011;25499;53.958;10.970;2022-08-16T16:02:07;4.07;;;3.72;;
39822;SDS011;25499;53.958;10.970;2022-08-16T16:04:32;3.65;;;3.33;;
39822;SDS011;25499;53.958;10.970;2022-08-16T16:06:58;4.95;;;3.20;;
39822;SDS011;25499;53.958;10.970;2022-08-16T16:09:24;3.20;;;3.00;;
39822;SDS011;25499;53.958;10.970;2022-08-16T16:11:50;3.30;;;2.63;;
39822;SDS011;25499;53.958;10.970;2022-08-16T16:14:16;3.13;;;2.83;;
39822;SDS011;25499;53.958;10.970;2022-08-16T16:16:42;3.10;;;2.78;;
39822;SDS011;25499;53.958;10.970;2022-08-16T16:19:08;3.50;;;3.20;;
39822;SDS011;25499;53.958;10.970;2022-08-16T16:21:34;3.42;;;2.78;;
39822;SDS011;25499;53.958;10.970;2022-08-16T16:24:00;3.28;;;2.70;;
39822;SDS011;25499;53.958;10.970;2022-08-16T16:26:26;5.93;;;2.88;;
39822;SDS011;25499;53.958;10.970;2022-08-16T16:28:51;4.63;;;2.95;;
39822;SDS011;25499;53.958;10.970;2022-08-16T16:31:18;3.10;;;2.90;;
39822;SDS011;25499;53.958;10.970;2022-08-16T16:33:45;3.33;;;3.13;;
39822;SDS011;25499;53.958;10.970;2022-08-16T16:36:15;3.55;;;2.78;;
39822;SDS011;25499;53.958;10.970;2022-08-16T16:38:42;4.97;;;2.60;;
39822;SDS011;25499;53.958;10.970;2022-08-16T16:41:10;3.88;;;3.00;;
39822;SDS011;25499;53.958;10.970;2022-08-16T16:43:40;3.33;;;3.00;;
39822;SDS011;25499;53.958;10.970;2022-08-16T16:46:07;3.42;;;3.00;;
39822;SDS011;25499;53.958;10.970;2022-08-16T16:48:34;4.18;;;3.50;;
39822;SDS011;25499;53.958;10.970;2022-08-16T16:51:00;4.15;;;3.30;;
39822;SDS011;25499;53.958;10.970;2022-08-16T16:53:29;3.10;;;2.90;;
39822;SDS011;25499;53.958;10.970;2022-08-16T16:55:55;3.85;;;3.00;;
39822;SDS011;25499;53.958;10.970;2022-08-16T16:58:21;3.95;;;3.35;;
39822;SDS011;25499;53.958;10.970;2022-08-16T17:01:06;4.82;;;3.10;;
39822;SDS011;25499;53.958;10.970;2022-08-16T17:03:32;4.90;;;3.55;;
39822;SDS011;25499;53.958;10.970;2022-08-16T17:05:59;4.35;;;3.50;;
39822;SDS011;25499;53.958;10.970;2022-08-16T17:08:24;4.95;;;3.00;;
39822;SDS011;25499;53.958;10.970;2022-08-16T17:10:50;7.70;;;3.10;;
39822;SDS011;25499;53.958;10.970;2022-08-16T17:13:16;3.90;;;3.13;;
39822;SDS011;25499;53.958;10.970;2022-08-16T17:15:43;3.50;;;3.20;;
39822;SDS011;25499;53.958;10.970;2022-08-16T17:18:08;4.05;;;3.35;;
39822;SDS011;25499;53.958;10.970;2022-08-16T17:20:34;3.20;;;3.00;;
39822;SDS011;25499;53.958;10.970;2022-08-16T17:23:00;4.30;;;3.00;;
39822;SDS011;25499;53.958;10.970;2022-08-16T17:25:26;4.20;;;3.15;;
39822;SDS011;25499;53.958;10.970;2022-08-16T17:27:51;4.95;;;2.90;;
39822;SDS011;25499;53.958;10.970;2022-08-16T17:30:19;3.40;;;3.10;;
39822;SDS011;25499;53.958;10.970;2022-08-16T17:32:49;4.03;;;3.53;;
39822;SDS011;25499;53.958;10.970;2022-08-16T17:35:19;3.90;;;3.60;;
39822;SDS011;25499;53.958;10.970;2022-08-16T17:37:49;5.18;;;3.67;;
39822;SDS011;25499;53.958;10.970;2022-08-16T17:40:14;3.70;;;3.40;;
39822;SDS011;25499;53.958;10.970;2022-08-16T17:42:40;3.33;;;3.03;;
39822;SDS011;25499;53.958;10.970;2022-08-16T17:45:06;3.67;;;3.38;;
39822;SDS011;25499;53.958;10.970;2022-08-16T17:47:31;3.85;;;3.30;;
39822;SDS011;25499;53.958;10.970;2022-08-16T17:49:57;4.13;;;3.72;;
39822;SDS011;25499;53.958;10.970;2022-08-16T17:52:22;3.50;;;3.22;;
39822;SDS011;25499;53.958;10.970;2022-08-16T17:54:48;4.60;;;3.67;;
39822;SDS011;25499;53.958;10.970;2022-08-16T17:57:13;5.70;;;3.83;;
39822;SDS011;25499;53.958;10.970;2022-08-16T17:59:39;7.07;;;3.78;;
39822;SDS011;25499;53.958;10.970;2022-08-16T18:02:04;5.30;;;3.90;;
39822;SDS011;25499;53.958;10.970;2022-08-16T18:04:29;4.43;;;4.05;;
39822;SDS011;25499;53.958;10.970;2022-08-16T18:06:55;4.40;;;4.05;;
39822;SDS011;25499;53.958;10.970;2022-08-16T18:09:21;4.15;;;3.72;;
39822;SDS011;25499;53.958;10.970;2022-08-16T18:11:47;7.45;;;4.28;;
39822;SDS011;25499;53.958;10.970;2022-08-16T18:14:13;4.03;;;3.72;;
39822;SDS011;25499;53.958;10.970;2022-08-16T18:16:40;6.25;;;4.15;;
39822;SDS011;25499;53.958;10.970;2022-08-16T18:19:11;4.75;;;4.35;;
39822;SDS011;25499;53.958;10.970;2022-08-16T18:21:37;5.68;;;4.80;;
39822;SDS011;25499;53.958;10.970;2022-08-16T18:24:21;5.53;;;4.28;;
39822;SDS011;25499;53.958;10.970;2022-08-16T18:26:46;6.68;;;4.35;;
39822;SDS011;25499;53.958;10.970;2022-08-16T18:29:12;5.57;;;4.25;;
39822;SDS011;25499;53.958;10.970;2022-08-16T18:31:37;5.78;;;4.43;;
39822;SDS011;25499;53.958;10.970;2022-08-16T18:34:03;7.53;;;4.80;;
39822;SDS011;25499;53.958;10.970;2022-08-16T18:36:29;4.57;;;4.15;;
39822;SDS011;25499;53.958;10.970;2022-08-16T18:38:55;5.18;;;4.28;;
39822;SDS011;25499;53.958;10.970;2022-08-16T18:41:21;6.32;;;4.57;;
39822;SDS011;25499;53.958;10.970;2022-08-16T18:43:49;7.95;;;4.60;;
39822;SDS011;25499;53.958;10.970;2022-08-16T18:46:14;5.40;;;4.28;;
39822;SDS011;25499;53.958;10.970;2022-08-16T18:48:39;6.18;;;4.40;;
39822;SDS011;25499;53.958;10.970;2022-08-16T18:51:05;5.68;;;4.88;;
39822;SDS011;25499;53.958;10.970;2022-08-16T18:53:31;6.53;;;4.60;;
39822;SDS011;25499;53.958;10.970;2022-08-16T18:55:58;8.43;;;4.45;;
39822;SDS011;25499;53.958;10.970;2022-08-16T18:58:25;13.65;;;4.45;;
39822;SDS011;25499;53.958;10.970;2022-08-16T19:00:52;7.75;;;4.43;;
39822;SDS011;25499;53.958;10.970;2022-08-16T19:03:19;8.10;;;4.10;;
39822;SDS011;25499;53.958;10.970;2022-08-16T19:05:51;8.70;;;3.75;;